Groom Creek, Arizona
Current Conditions -  °F | °C
As of 5:53 AM on Tuesday 21 Oct 2014 (Local Time) from KPRC Reporting Station
Clear Clear  
Wind Chill: 46°   Ceiling: Unl
Heat Index: 46°   Visibility: 10mi
Dew Point: 39°   Wind: 3mph
Humidity: 76%   Direction: 200°SSW
Pressure: 30.07"   Gusts: NA
Location:  34.5368°N, 112.512°W
Report Text: KPRC 211253Z 20003KT 10SM CLR 08/04 A3007 RMK AO2 SLP133 T00780039
Loading
Personal Weather Stations






























Interactive Weather Map
Tropical Storm Tracking
New forecast layout! Learn more

10-Day Weather Forecast

Advertisements
Track Severe Weather on mobile